メインページ
METAR-TAF:

METAR-TAF

空港 :

ラバト=サレ空港

ラバト, モロッコ

緯度: 34-03N, 経度: 006-46W, 海抜: 84m

現時点の気象観測

当レポートは26分前の03:30(UTC)に作成
南/南東の風 7kt
気温 11°C
湿度 76%
気圧 1028 hPa
視程: 8000m

METAR: GMME 130330Z 16007KT 8000 NSC 11/07 Q1028 NOSIG

時間: 04:56 (03:56 UTC)

予報

当レポートは4時間56分前の23:00(UTC)に作成
予報は13日の 00時(UTC)から 14日の 06時(UTC)まで有効
南東の風 8kt
視程: 8000m
高度1600ftの雲は散在している
高度8000ftの雲は散在している
13日の 02時(UTC)から 13日の 08時(UTC)まで一時的に
高度1500ftの千切れ雲あり
13日の 12時(UTC)から 13日の 18時(UTC)まで一時的に
北東の風 10kt

TAF: GMME 122300Z 1300/1406 14008KT 8000 SCT016 SCT080 TEMPO 1302/1308 BKN015 TEMPO 1312/1318 04010KT NSC

4,000以上の空港の気象観測と天気予報(METAR報とTAF報)

利用可能な観測所は地図上に黄色い丸と赤い丸で示す。

丸の上にカーソルを重ねると観測所名を参照できる。

次にクリックすると気象観測と天気予報を参照できる。

マップの切り替え:黒色「×」印の緑ボタンをクリックして拡大、「-」印の緑ボタンをクリックして縮小、緑色の三角印をクリックして隣りの地図に切り替え


METAR-TAF: